Time;durP1;ratioP1;P1;durP2;ratioP2;P2;SDS_P1;SDS_P2;PMS_P1;PMS_P2;Temp;Humidity;BMP_temperature;BMP_pressure;BME280_temperature;BME280_humidity;BME280_pressure;Samples;Min_cycle;Max_cycle;Signal;HPM_P1;HPM_P2
2023/03/13 00:01:23;;;;;;;9.57;9.27;;;8.10;99.90;;;;;;5124645;27;20243;-82
2023/03/13 00:03:54;;;;;;;9.70;9.40;;;8.10;99.90;;;;;;5124631;27;20243;-82
2023/03/13 00:06:24;;;;;;;10.00;9.70;;;8.10;99.90;;;;;;5129064;28;20268;-83
2023/03/13 00:08:53;;;;;;;9.70;9.40;;;8.10;99.90;;;;;;5126543;27;20323;-82
2023/03/13 00:11:24;;;;;;;9.90;9.60;;;8.10;99.90;;;;;;5127185;27;20243;-82
2023/03/13 00:16:38;;;;;;;9.73;9.43;;;8.00;99.90;;;;;;5127281;27;20260;-82
2023/03/13 00:19:08;;;;;;;9.70;9.40;;;8.00;99.90;;;;;;5128969;27;20240;-82
2023/03/13 00:21:37;;;;;;;9.80;9.50;;;8.00;99.90;;;;;;5129051;27;20259;-82
2023/03/13 00:24:06;;;;;;;9.87;9.57;;;8.00;99.90;;;;;;5131246;27;20292;-83
2023/03/13 00:26:45;;;;;;;9.70;9.40;;;8.00;99.90;;;;;;5131595;27;20237;-83
2023/03/13 00:29:14;;;;;;;10.00;9.70;;;8.00;99.90;;;;;;5130649;27;20239;-82
2023/03/13 00:31:44;;;;;;;9.70;9.40;;;8.00;99.90;;;;;;5124781;27;20234;-82
2023/03/13 00:34:13;;;;;;;9.57;9.27;;;8.00;99.90;;;;;;5123202;27;20256;-83
2023/03/13 00:36:43;;;;;;;9.53;9.23;;;7.90;99.90;;;;;;5127100;27;20280;-83
2023/03/13 00:39:12;;;;;;;9.60;9.30;;;7.90;99.90;;;;;;5129317;27;20265;-83
2023/03/13 00:41:51;;;;;;;9.60;9.30;;;8.00;99.90;;;;;;5133397;27;20241;-80
2023/03/13 00:44:20;;;;;;;9.50;9.20;;;8.00;99.90;;;;;;5130546;27;20284;-82
2023/03/13 00:46:50;;;;;;;9.70;9.40;;;8.00;99.90;;;;;;5129351;27;20236;-82
2023/03/13 00:49:19;;;;;;;9.60;9.30;;;8.00;99.90;;;;;;5132859;27;20231;-82
2023/03/13 00:51:48;;;;;;;9.53;9.23;;;8.00;99.90;;;;;;5135407;27;20236;-82
2023/03/13 00:54:17;;;;;;;9.60;9.30;;;8.00;99.90;;;;;;5137638;27;20268;-82
2023/03/13 00:56:47;;;;;;;9.60;9.30;;;8.00;99.90;;;;;;5132587;27;20230;-83
2023/03/13 00:59:17;;;;;;;9.70;9.40;;;8.00;99.90;;;;;;5137038;27;20237;-83
2023/03/13 01:01:46;;;;;;;9.63;9.33;;;8.00;99.90;;;;;;5134989;27;20263;-83
2023/03/13 01:04:15;;;;;;;9.70;9.40;;;8.00;99.90;;;;;;5134440;27;20228;-83
2023/03/13 01:06:45;;;;;;;9.73;9.43;;;7.90;99.90;;;;;;5133819;27;20225;-82
2023/03/13 01:09:14;;;;;;;9.40;9.10;;;7.90;99.90;;;;;;5132777;27;20319;-83
2023/03/13 01:11:44;;;;;;;9.70;9.40;;;7.90;99.90;;;;;;5132027;27;20267;-82
2023/03/13 01:14:22;;;;;;;9.47;9.17;;;7.80;99.90;;;;;;5133824;27;20300;-84
2023/03/13 01:16:51;;;;;;;9.33;9.03;;;7.80;99.90;;;;;;5134515;27;20225;-82
2023/03/13 01:19:21;;;;;;;9.43;9.13;;;7.80;99.90;;;;;;5134546;27;20281;-82
2023/03/13 01:21:50;;;;;;;9.30;9.00;;;7.70;99.90;;;;;;5132708;27;20327;-82
2023/03/13 01:24:20;;;;;;;9.50;9.20;;;7.70;99.90;;;;;;5133493;27;20260;-85
2023/03/13 01:26:49;;;;;;;9.60;9.30;;;7.70;99.90;;;;;;5134579;27;20264;-82
2023/03/13 01:29:38;;;;;;;9.60;9.30;;;7.70;99.90;;;;;;5134708;27;20308;-83
2023/03/13 01:32:06;;;;;;;9.40;9.10;;;7.70;99.90;;;;;;5133615;28;20228;-82
2023/03/13 01:34:36;;;;;;;9.30;9.00;;;7.70;99.90;;;;;;5132361;28;20236;-82
2023/03/13 01:37:05;;;;;;;9.40;9.10;;;7.60;99.90;;;;;;5131204;27;20236;-82
2023/03/13 01:39:34;;;;;;;9.20;8.90;;;7.50;99.90;;;;;;5130647;27;20316;-83
2023/03/13 01:42:03;;;;;;;9.30;9.00;;;7.50;99.90;;;;;;5137894;27;20311;-82
2023/03/13 01:44:50;;;;;;;9.50;9.20;;;7.50;99.90;;;;;;5128860;27;20229;-82
2023/03/13 01:47:20;;;;;;;9.20;8.90;;;7.40;99.90;;;;;;5131491;27;20235;-82
2023/03/13 01:49:50;;;;;;;9.33;9.03;;;7.40;99.90;;;;;;5132305;27;20225;-82
2023/03/13 01:52:21;;;;;;;9.40;9.10;;;7.40;99.90;;;;;;5131796;27;20236;-82
2023/03/13 01:54:59;;;;;;;9.30;9.00;;;7.40;99.90;;;;;;5132001;27;20236;-82
2023/03/13 01:57:36;;;;;;;9.30;9.00;;;7.40;99.90;;;;;;5128961;27;20221;-82
2023/03/13 02:00:15;;;;;;;9.20;8.90;;;7.50;99.90;;;;;;5129036;27;20280;-82
2023/03/13 02:02:49;;;;;;;9.20;8.90;;;7.50;99.90;;;;;;5142347;27;20256;-82
2023/03/13 02:05:25;;;;;;;9.40;9.10;;;7.50;99.90;;;;;;5149156;27;20236;-83
2023/03/13 02:08:03;;;;;;;9.40;9.10;;;7.50;99.90;;;;;;5141069;27;20283;-82
2023/03/13 02:10:34;;;;;;;9.50;9.20;;;7.50;99.90;;;;;;5149358;27;20283;-82
2023/03/13 02:13:03;;;;;;;9.70;9.40;;;7.50;99.90;;;;;;5150757;27;20232;-82
2023/03/13 02:15:39;;;;;;;9.53;9.23;;;7.50;99.90;;;;;;5133852;27;20231;-82
2023/03/13 02:18:07;;;;;;;9.37;9.07;;;7.60;99.90;;;;;;5149650;27;20250;-83
2023/03/13 02:20:37;;;;;;;9.40;9.10;;;7.60;99.90;;;;;;5145597;27;20328;-82
2023/03/13 02:23:13;;;;;;;9.37;9.07;;;7.60;99.90;;;;;;5131799;27;20248;-82
2023/03/13 02:25:53;;;;;;;9.43;9.13;;;7.70;99.90;;;;;;5129466;27;20239;-83
2023/03/13 02:28:25;;;;;;;9.30;9.00;;;7.70;99.90;;;;;;5128774;27;20225;-82
2023/03/13 02:30:57;;;;;;;9.50;9.20;;;7.70;99.90;;;;;;5129105;27;20272;-82
2023/03/13 02:33:30;;;;;;;9.20;8.90;;;7.70;99.90;;;;;;5132390;27;20292;-82
2023/03/13 02:36:01;;;;;;;9.50;9.20;;;7.70;99.90;;;;;;5147191;27;20255;-83
2023/03/13 02:38:32;;;;;;;9.43;9.13;;;7.70;99.90;;;;;;5153635;27;20292;-82
2023/03/13 02:41:04;;;;;;;9.50;9.20;;;7.70;99.90;;;;;;5154306;27;20259;-82
2023/03/13 02:43:40;;;;;;;9.37;9.07;;;7.70;99.90;;;;;;5154774;27;20220;-83
2023/03/13 02:46:17;;;;;;;9.37;9.07;;;7.70;99.90;;;;;;5153542;27;20322;-83
2023/03/13 02:48:47;;;;;;;9.53;9.23;;;7.80;99.90;;;;;;5153400;27;20271;-83
2023/03/13 02:51:23;;;;;;;9.50;9.20;;;7.70;99.90;;;;;;5157811;27;20246;-82
2023/03/13 02:53:52;;;;;;;9.60;9.30;;;7.70;99.90;;;;;;5159356;27;20212;-82
2023/03/13 02:56:33;;;;;;;9.60;9.30;;;7.70;99.90;;;;;;5160451;27;20231;-83
2023/03/13 02:59:00;;;;;;;9.50;9.20;;;7.70;99.90;;;;;;5157025;27;20251;-82
2023/03/13 03:01:30;;;;;;;9.30;9.00;;;7.70;99.90;;;;;;5155079;27;20271;-83
2023/03/13 03:03:59;;;;;;;9.33;9.03;;;7.70;99.90;;;;;;5155801;27;20252;-83
2023/03/13 03:06:30;;;;;;;9.20;8.90;;;7.70;99.90;;;;;;5154533;27;20280;-82
2023/03/13 03:08:59;;;;;;;9.40;9.10;;;7.70;99.90;;;;;;5160329;27;20219;-81
2023/03/13 03:11:31;;;;;;;9.40;9.10;;;7.70;99.90;;;;;;5159747;27;20269;-81
2023/03/13 03:13:58;;;;;;;9.37;9.07;;;7.70;99.90;;;;;;5151022;27;20323;-81
2023/03/13 03:16:27;;;;;;;9.20;8.90;;;7.70;99.90;;;;;;5150695;27;20232;-80
2023/03/13 03:18:56;;;;;;;9.07;8.77;;;7.70;99.90;;;;;;5153776;27;20243;-82
2023/03/13 03:21:25;;;;;;;9.10;8.80;;;7.70;99.90;;;;;;5148410;27;20239;-81
2023/03/13 03:23:55;;;;;;;9.37;9.07;;;7.70;99.90;;;;;;5149441;27;20311;-81
2023/03/13 03:26:24;;;;;;;9.30;9.00;;;7.70;99.90;;;;;;5147485;27;20292;-81
2023/03/13 03:28:56;;;;;;;9.37;9.07;;;7.70;99.90;;;;;;5146836;27;20282;-82
2023/03/13 03:31:24;;;;;;;9.20;8.90;;;7.70;99.90;;;;;;5136735;27;20236;-81
2023/03/13 03:33:53;;;;;;;9.27;8.97;;;7.70;99.90;;;;;;5125896;27;20257;-81
2023/03/13 03:36:23;;;;;;;9.30;9.00;;;7.70;99.90;;;;;;5125188;27;20224;-82
2023/03/13 03:38:52;;;;;;;9.10;8.80;;;7.70;99.90;;;;;;5124912;27;20236;-81
2023/03/13 03:41:21;;;;;;;9.10;8.80;;;7.60;99.90;;;;;;5125223;27;20229;-81
2023/03/13 03:43:50;;;;;;;9.20;8.90;;;7.60;99.90;;;;;;5125195;27;20288;-81
2023/03/13 03:46:23;;;;;;;9.20;8.90;;;7.60;99.90;;;;;;5132869;27;20268;-81
2023/03/13 03:48:51;;;;;;;9.10;8.80;;;7.60;99.90;;;;;;5130440;27;20220;-81
2023/03/13 03:51:18;;;;;;;9.20;8.90;;;7.60;99.90;;;;;;5124575;27;20292;-81
2023/03/13 03:53:48;;;;;;;9.03;8.73;;;7.60;99.90;;;;;;5124644;27;20224;-81
2023/03/13 03:56:17;;;;;;;8.73;8.53;;;7.70;99.90;;;;;;5124348;27;20233;-81
2023/03/13 03:58:48;;;;;;;9.00;8.70;;;7.70;99.90;;;;;;5124409;27;20265;-82
2023/03/13 04:01:16;;;;;;;8.73;8.53;;;7.70;99.90;;;;;;5123925;27;20235;-81
2023/03/13 04:03:50;;;;;;;8.80;8.60;;;7.70;99.90;;;;;;5124396;27;20260;-81
2023/03/13 04:06:17;;;;;;;8.70;8.50;;;7.80;99.90;;;;;;5124024;27;20233;-81
2023/03/13 04:08:46;;;;;;;9.00;8.70;;;7.80;99.90;;;;;;5123880;27;20263;-81
2023/03/13 04:11:17;;;;;;;9.07;8.77;;;7.80;99.90;;;;;;5124008;27;20228;-81
2023/03/13 04:13:45;;;;;;;8.73;8.53;;;7.70;99.90;;;;;;5123779;27;20296;-81
2023/03/13 04:16:15;;;;;;;8.70;8.50;;;7.80;99.90;;;;;;5123877;27;20283;-81
2023/03/13 04:18:46;;;;;;;8.60;8.40;;;7.80;99.90;;;;;;5123468;27;20246;-81
2023/03/13 04:21:14;;;;;;;8.70;8.50;;;7.80;99.90;;;;;;5122490;27;20288;-81
2023/03/13 04:23:43;;;;;;;8.43;8.23;;;7.80;99.90;;;;;;5123519;27;20271;-81
2023/03/13 04:26:12;;;;;;;8.80;8.60;;;7.80;99.90;;;;;;5122843;27;20239;-81
2023/03/13 04:28:43;;;;;;;8.60;8.40;;;7.80;99.90;;;;;;5123145;27;20320;-81
2023/03/13 04:31:11;;;;;;;8.60;8.40;;;7.80;99.90;;;;;;5123392;27;20251;-81
2023/03/13 04:33:40;;;;;;;8.70;8.50;;;7.80;99.90;;;;;;5127225;27;20488;-81
2023/03/13 04:36:19;;;;;;;8.50;8.30;;;7.80;99.90;;;;;;5132241;27;20247;-82
2023/03/13 04:38:49;;;;;;;8.57;8.37;;;7.80;99.90;;;;;;5142810;27;20288;-81
2023/03/13 04:41:19;;;;;;;8.53;8.33;;;7.90;99.90;;;;;;5142652;27;20213;-81
2023/03/13 04:43:48;;;;;;;8.53;8.33;;;8.00;99.90;;;;;;5133738;27;20232;-81
2023/03/13 04:46:18;;;;;;;8.33;8.13;;;8.00;99.90;;;;;;5129356;27;20232;-81
2023/03/13 04:48:47;;;;;;;8.60;8.40;;;8.00;99.90;;;;;;5128283;27;20225;-81
2023/03/13 04:51:17;;;;;;;8.70;8.50;;;8.00;99.90;;;;;;5128268;27;20286;-81
2023/03/13 04:53:45;;;;;;;8.57;8.37;;;8.00;99.90;;;;;;5127396;27;20668;-81
2023/03/13 04:56:22;;;;;;;8.77;8.57;;;8.00;99.90;;;;;;5126380;27;20327;-81
2023/03/13 04:58:53;;;;;;;8.70;8.50;;;7.90;99.90;;;;;;5126806;27;20264;-81
2023/03/13 05:01:22;;;;;;;9.10;8.80;;;7.90;99.90;;;;;;5128454;27;20221;-81
2023/03/13 05:03:52;;;;;;;8.97;8.67;;;7.90;99.90;;;;;;5133200;27;20228;-80
2023/03/13 05:06:24;;;;;;;9.00;8.70;;;8.00;99.90;;;;;;5131126;27;20240;-81
2023/03/13 05:08:51;;;;;;;9.00;8.70;;;7.90;99.90;;;;;;5130332;27;20229;-82
2023/03/13 05:11:21;;;;;;;8.83;8.60;;;7.90;99.90;;;;;;5125523;27;20292;-81
2023/03/13 05:13:50;;;;;;;9.00;8.70;;;7.90;99.90;;;;;;5126439;27;20240;-80
2023/03/13 05:16:19;;;;;;;8.97;8.67;;;7.90;99.90;;;;;;5127038;27;20248;-82
2023/03/13 05:18:49;;;;;;;9.00;8.70;;;7.90;99.90;;;;;;5129000;27;20240;-81
2023/03/13 05:21:18;;;;;;;9.00;8.70;;;8.00;99.90;;;;;;5130977;27;20239;-81
2023/03/13 05:23:57;;;;;;;8.87;8.60;;;8.00;99.90;;;;;;5129658;27;20229;-81
2023/03/13 05:26:26;;;;;;;8.70;8.50;;;8.00;99.90;;;;;;5128401;27;20228;-81
2023/03/13 05:28:55;;;;;;;8.77;8.57;;;8.00;99.90;;;;;;5126773;27;20235;-81
2023/03/13 05:31:25;;;;;;;8.90;8.63;;;8.00;99.90;;;;;;5131582;27;20292;-82
2023/03/13 05:33:54;;;;;;;8.73;8.53;;;7.90;99.90;;;;;;5128986;27;20282;-81
2023/03/13 05:36:23;;;;;;;9.50;9.20;;;7.90;99.90;;;;;;5125707;27;20422;-81
2023/03/13 05:38:56;;;;;;;9.27;8.97;;;8.00;99.90;;;;;;5125379;27;20256;-81
2023/03/13 05:41:23;;;;;;;9.20;8.90;;;8.10;99.90;;;;;;5125384;27;20221;-81
2023/03/13 05:43:52;;;;;;;9.30;9.00;;;8.10;99.90;;;;;;5125985;27;20229;-81
2023/03/13 05:46:21;;;;;;;9.40;9.10;;;8.10;99.90;;;;;;5125771;27;20267;-81
2023/03/13 05:48:52;;;;;;;9.30;9.00;;;8.20;99.90;;;;;;5125997;27;20315;-81
2023/03/13 05:51:20;;;;;;;9.20;8.90;;;8.20;99.90;;;;;;5126186;27;20323;-81
2023/03/13 05:53:49;;;;;;;9.20;8.90;;;8.20;99.90;;;;;;5125852;27;20233;-81
2023/03/13 05:56:28;;;;;;;9.10;8.80;;;8.20;99.90;;;;;;5125159;27;20237;-81
2023/03/13 05:58:58;;;;;;;9.13;8.83;;;8.20;99.90;;;;;;5125032;27;20323;-82
2023/03/13 06:01:26;;;;;;;9.30;9.00;;;8.20;99.90;;;;;;5147814;22;20225;-80
2023/03/13 06:04:00;;;;;;;8.77;8.57;;;8.30;99.90;;;;;;5125871;28;20221;-80
2023/03/13 06:06:28;;;;;;;8.80;8.60;;;8.30;99.90;;;;;;5125783;28;20233;-82
2023/03/13 06:08:57;;;;;;;8.63;8.43;;;8.30;99.90;;;;;;5128311;28;20216;-82
2023/03/13 06:11:28;;;;;;;8.80;8.60;;;8.30;99.90;;;;;;5122822;28;20221;-82
2023/03/13 06:13:56;;;;;;;8.80;8.60;;;8.30;99.90;;;;;;5123511;28;20290;-82
2023/03/13 06:16:24;;;;;;;8.50;8.30;;;8.40;99.90;;;;;;5122680;27;20237;-82
2023/03/13 06:18:54;;;;;;;8.40;8.20;;;8.40;99.90;;;;;;5124105;28;20236;-82
2023/03/13 06:21:24;;;;;;;8.50;8.30;;;8.50;99.90;;;;;;5123847;28;20331;-82
2023/03/13 06:23:54;;;;;;;8.30;8.10;;;8.50;99.90;;;;;;5124510;28;20224;-83
2023/03/13 06:26:24;;;;;;;8.40;8.20;;;8.50;99.90;;;;;;5125438;28;20224;-82
2023/03/13 06:28:55;;;;;;;8.30;8.10;;;8.60;99.90;;;;;;5136048;28;20213;-82
2023/03/13 06:31:23;;;;;;;8.50;8.30;;;8.70;99.90;;;;;;5141508;27;20247;-82
2023/03/13 06:33:54;;;;;;;8.43;8.23;;;8.70;99.90;;;;;;5132751;28;20288;-82
2023/03/13 06:36:22;;;;;;;8.57;8.37;;;8.70;99.90;;;;;;5131100;27;20233;-82
2023/03/13 06:38:50;;;;;;;8.50;8.30;;;8.80;99.90;;;;;;5138979;28;20240;-81
2023/03/13 06:41:19;;;;;;;8.30;8.10;;;8.80;99.90;;;;;;5138970;28;20229;-82
2023/03/13 06:43:49;;;;;;;8.43;8.23;;;8.90;99.90;;;;;;5138760;28;20237;-79
2023/03/13 06:46:28;;;;;;;8.50;8.30;;;8.90;99.90;;;;;;5139575;28;20239;-79
2023/03/13 06:48:57;;;;;;;8.60;8.40;;;8.90;99.90;;;;;;5139348;28;20232;-79
2023/03/13 06:51:26;;;;;;;8.37;8.17;;;9.00;99.90;;;;;;5140997;28;20212;-79
2023/03/13 06:53:55;;;;;;;8.50;8.30;;;9.10;99.90;;;;;;5139711;28;20264;-80
2023/03/13 06:56:25;;;;;;;8.50;8.30;;;9.10;99.90;;;;;;5127069;28;20254;-80
2023/03/13 06:58:55;;;;;;;8.50;8.30;;;9.10;99.90;;;;;;5126230;27;20307;-81
2023/03/13 07:01:33;;;;;;;7.97;7.77;;;9.10;99.90;;;;;;5122322;27;20272;-81
2023/03/13 07:04:02;;;;;;;8.50;8.30;;;9.20;99.90;;;;;;5123591;28;20271;-80
2023/03/13 07:06:31;;;;;;;8.33;8.13;;;9.20;99.90;;;;;;5125666;28;20228;-80
2023/03/13 07:09:01;;;;;;;8.30;8.10;;;9.30;99.90;;;;;;5130926;28;20240;-80
2023/03/13 07:11:30;;;;;;;8.37;8.17;;;9.30;99.90;;;;;;5136102;28;20236;-80
2023/03/13 07:14:00;;;;;;;8.40;8.20;;;9.30;99.90;;;;;;5133280;28;20260;-81
2023/03/13 07:16:32;;;;;;;8.60;8.40;;;9.30;99.90;;;;;;5131830;28;20261;-80
2023/03/13 07:19:09;;;;;;;8.63;8.43;;;9.40;99.90;;;;;;5127259;28;20417;-85
2023/03/13 07:28:46;;;;;;;8.83;8.63;;;9.60;99.90;;;;;;5113892;28;20224;-85
2023/03/13 07:34:59;;;;;;;8.60;8.40;;;9.70;99.90;;;;;;5084072;28;20226;-84
2023/03/13 07:37:44;;;;;;;8.93;8.73;;;9.80;99.90;;;;;;5124309;28;20243;-84
2023/03/13 07:45:57;;;;;;;9.20;8.90;;;10.00;99.90;;;;;;5121544;28;20229;-83
2023/03/13 07:48:37;;;;;;;8.90;8.70;;;10.00;99.90;;;;;;5112206;28;20232;-83
2023/03/13 07:51:14;;;;;;;8.90;8.67;;;10.10;99.90;;;;;;5104559;28;20249;-82
2023/03/13 07:53:53;;;;;;;9.23;8.93;;;10.10;99.90;;;;;;5105370;28;20236;-82
2023/03/13 07:56:30;;;;;;;9.20;8.90;;;10.20;99.90;;;;;;5104317;28;20221;-83
2023/03/13 07:59:01;;;;;;;8.90;8.70;;;10.30;99.90;;;;;;5105187;28;20304;-83
2023/03/13 08:01:37;;;;;;;9.10;8.80;;;10.30;99.90;;;;;;5103068;28;20287;-83
2023/03/13 08:04:08;;;;;;;9.30;9.00;;;10.40;99.90;;;;;;5104329;28;20225;-83
2023/03/13 08:06:48;;;;;;;9.37;9.07;;;10.50;99.90;;;;;;5105532;28;20202;-82
2023/03/13 08:09:18;;;;;;;9.27;8.97;;;10.60;99.90;;;;;;5108252;28;20259;-83
2023/03/13 08:11:47;;;;;;;8.80;8.60;;;10.70;99.90;;;;;;5108717;28;20267;-82
2023/03/13 08:14:17;;;;;;;8.90;8.70;;;10.70;99.90;;;;;;5115802;28;20221;-83
2023/03/13 08:16:54;;;;;;;8.90;8.70;;;10.90;99.90;;;;;;5115193;28;20241;-82
2023/03/13 08:19:25;;;;;;;9.20;8.90;;;10.90;99.90;;;;;;5107630;28;20225;-83
2023/03/13 08:22:02;;;;;;;9.20;8.90;;;11.00;99.90;;;;;;5107310;28;20225;-82
2023/03/13 08:24:30;;;;;;;9.40;9.10;;;11.10;99.90;;;;;;5107989;28;20217;-81
2023/03/13 08:29:49;;;;;;;9.60;9.30;;;11.30;99.90;;;;;;5107995;28;20226;-82
2023/03/13 08:32:28;;;;;;;9.47;9.17;;;11.30;99.90;;;;;;5108565;28;20244;-83
2023/03/13 08:35:06;;;;;;;9.20;8.90;;;11.40;99.90;;;;;;5109621;28;20235;-82
2023/03/13 08:37:40;;;;;;;9.10;8.80;;;11.50;99.90;;;;;;5117959;28;20273;-82
2023/03/13 08:50:28;;;;;;;9.37;9.07;;;11.70;99.90;;;;;;5102994;28;20217;-83
2023/03/13 08:52:58;;;;;;;9.20;8.90;;;11.70;99.90;;;;;;5090137;28;20241;-82
2023/03/13 08:55:34;;;;;;;9.40;9.10;;;11.70;99.90;;;;;;5106680;28;20225;-82
2023/03/13 09:00:51;;;;;;;9.47;9.17;;;11.80;99.90;;;;;;5119543;28;20214;-81
2023/03/13 09:03:30;;;;;;;9.03;8.73;;;11.90;99.90;;;;;;5115675;28;20222;-84
2023/03/13 09:06:06;;;;;;;9.20;8.90;;;12.00;99.90;;;;;;5117844;28;20251;-83
2023/03/13 09:08:45;;;;;;;8.70;8.50;;;12.10;99.90;;;;;;5115903;28;20305;-82
2023/03/13 09:24:18;;;;;;;9.50;9.20;;;12.80;99.90;;;;;;5107517;28;20277;-83
2023/03/13 09:26:46;;;;;;;9.60;9.30;;;12.90;99.90;;;;;;5107117;28;20251;-82
2023/03/13 09:38:31;;;;;;;9.90;9.60;;;13.40;99.90;;;;;;5084788;28;20221;-82
2023/03/13 09:41:34;;;;;;;9.73;9.43;;;13.40;99.90;;;;;;5106127;28;20240;-82
2023/03/13 09:44:34;;;;;;;9.80;9.50;;;13.50;99.90;;;;;;5107411;28;20221;-82
2023/03/13 09:47:17;;;;;;;9.60;9.30;;;13.60;99.90;;;;;;5108383;28;20221;-81
2023/03/13 09:49:50;;;;;;;9.50;9.20;;;13.70;99.90;;;;;;5119043;28;20251;-82
2023/03/13 10:03:01;;;;;;;9.40;9.10;;;14.60;99.90;;;;;;5125209;28;20323;-85
2023/03/13 10:05:39;;;;;;;9.77;9.47;;;14.50;99.90;;;;;;5127010;28;20228;-84
2023/03/13 10:08:17;;;;;;;9.80;9.50;;;14.40;99.90;;;;;;5129218;28;20217;-82
2023/03/13 10:10:54;;;;;;;10.20;9.90;;;14.30;99.90;;;;;;5130573;28;20220;-84
2023/03/13 10:13:31;;;;;;;10.10;9.80;;;14.30;99.90;;;;;;5127572;28;20260;-84
2023/03/13 10:16:13;;;;;;;9.90;9.60;;;14.30;99.90;;;;;;5127385;28;20240;-84
2023/03/13 10:18:48;;;;;;;10.00;9.70;;;14.30;99.90;;;;;;5120300;28;20230;-84
2023/03/13 10:21:23;;;;;;;10.00;9.70;;;14.40;99.90;;;;;;5125314;28;20224;-84
2023/03/13 10:24:05;;;;;;;9.70;9.40;;;14.40;99.90;;;;;;5127283;27;20264;-83
2023/03/13 10:26:36;;;;;;;9.50;9.20;;;14.40;99.90;;;;;;5127070;28;20236;-83
2023/03/13 10:29:22;;;;;;;9.30;9.00;;;14.40;99.90;;;;;;5126633;28;20225;-85
2023/03/13 10:31:59;;;;;;;9.70;9.40;;;14.40;99.90;;;;;;5129519;27;20230;-83
2023/03/13 10:34:47;;;;;;;9.40;9.10;;;14.30;99.90;;;;;;5127918;27;20230;-83
2023/03/13 10:44:47;;;;;;;10.00;9.70;;;14.30;99.90;;;;;;5105051;27;20244;-82
2023/03/13 10:54:35;;;;;;;10.10;9.80;;;14.30;99.90;;;;;;5050160;27;20241;-81
2023/03/13 11:00:44;;;;;;;10.07;9.77;;;14.30;99.90;;;;;;5062897;28;20253;-81
2023/03/13 11:04:13;;;;;;;10.20;9.90;;;14.30;99.90;;;;;;5127096;28;20240;-81
2023/03/13 11:11:38;;;;;;;10.20;9.90;;;14.30;99.90;;;;;;5124391;28;20225;-81
2023/03/13 11:19:04;;;;;;;9.90;9.60;;;14.40;99.90;;;;;;5093556;27;20263;-83
2023/03/13 11:33:02;;;;;;;10.00;9.70;;;14.50;99.90;;;;;;5080057;28;20520;-81
2023/03/13 11:44:06;;;;;;;10.30;10.00;;;15.80;99.90;;;;;;5017567;28;20228;-81
2023/03/13 11:47:10;;;;;;;10.15;9.85;;;15.50;99.90;;;;;;4907423;29;20241;-80
2023/03/13 11:50:27;;;;;;;9.98;9.68;;;15.30;99.90;;;;;;4947865;28;20229;-80
2023/03/13 12:03:58;;;;;;;10.13;9.82;;;15.10;99.90;;;;;;5078480;28;20238;-85
2023/03/13 12:06:33;;;;;;;9.77;9.48;;;15.10;99.90;;;;;;5087656;28;20236;-83
2023/03/13 12:09:10;;;;;;;9.90;9.60;;;15.10;99.90;;;;;;5086589;28;20278;-85
2023/03/13 12:11:58;;;;;;;10.00;9.70;;;15.10;99.90;;;;;;5080275;28;20274;-84
2023/03/13 12:14:35;;;;;;;10.00;9.70;;;15.20;99.90;;;;;;5064369;28;20246;-84
2023/03/13 12:17:06;;;;;;;10.07;9.77;;;15.30;99.90;;;;;;5062524;28;20270;-85
2023/03/13 12:19:42;;;;;;;10.00;9.70;;;15.40;99.90;;;;;;5052798;28;20262;-86
2023/03/13 12:22:20;;;;;;;10.20;9.90;;;15.50;99.90;;;;;;5062602;28;20234;-86
2023/03/13 12:25:00;;;;;;;10.30;10.00;;;15.60;99.90;;;;;;5060035;28;20231;-86
2023/03/13 12:27:37;;;;;;;10.18;9.88;;;15.60;99.90;;;;;;5058660;28;20230;-86
2023/03/13 12:30:24;;;;;;;10.20;9.90;;;15.80;99.90;;;;;;5058888;28;20283;-87
2023/03/13 12:33:02;;;;;;;10.50;10.20;;;15.90;99.90;;;;;;5046894;28;20239;-87
2023/03/13 12:35:32;;;;;;;10.48;10.18;;;16.20;99.90;;;;;;5045514;28;20274;-86
2023/03/13 12:38:42;;;;;;;10.30;10.00;;;16.80;99.90;;;;;;5046399;28;20223;-87
2023/03/13 12:41:24;;;;;;;10.20;9.90;;;17.40;99.90;;;;;;5049176;28;20211;-89
2023/03/13 12:43:55;;;;;;;10.07;9.77;;;17.70;99.90;;;;;;5062616;28;20207;-87
2023/03/13 12:46:49;;;;;;;10.38;10.07;;;17.80;99.90;;;;;;5061788;28;20219;-86
2023/03/13 12:53:24;;;;;;;10.23;9.93;;;18.80;99.90;;;;;;5046492;28;20238;-88
2023/03/13 12:56:37;;;;;;;10.60;10.30;;;19.10;99.90;;;;;;5015524;28;20314;-88
2023/03/13 12:59:08;;;;;;;10.88;10.57;;;19.00;99.90;;;;;;5049220;28;20258;-86
2023/03/13 13:01:45;;;;;;;10.65;10.35;;;19.00;99.90;;;;;;5044767;28;20239;-86
2023/03/13 13:04:15;;;;;;;10.75;10.45;;;19.10;99.90;;;;;;5047341;28;20241;-85
2023/03/13 13:07:01;;;;;;;10.60;10.30;;;18.70;99.90;;;;;;5048932;28;20223;-86
2023/03/13 13:09:31;;;;;;;10.45;10.15;;;18.20;99.90;;;;;;5048634;28;20231;-87
2023/03/13 13:12:18;;;;;;;10.55;10.25;;;17.80;99.90;;;;;;5048848;28;20300;-86
2023/03/13 13:15:14;;;;;;;10.25;9.95;;;17.60;99.90;;;;;;5044284;28;20227;-86
2023/03/13 13:18:29;;;;;;;10.25;9.95;;;17.50;99.90;;;;;;5043791;28;20266;-87
2023/03/13 13:21:25;;;;;;;10.70;10.40;;;17.70;99.90;;;;;;5043854;28;20247;-85
2023/03/13 13:23:55;;;;;;;10.18;9.88;;;17.60;99.90;;;;;;5044235;28;20249;-89
2023/03/13 13:26:50;;;;;;;10.45;10.15;;;17.60;99.90;;;;;;5043891;28;20287;-86
2023/03/13 13:30:04;;;;;;;10.50;10.20;;;17.80;99.90;;;;;;5044174;28;20263;-86
2023/03/13 13:32:49;;;;;;;10.35;10.05;;;17.80;99.90;;;;;;5043603;28;20235;-86
2023/03/13 13:35:35;;;;;;;10.52;10.23;;;17.90;99.90;;;;;;5043125;28;20231;-86
2023/03/13 13:38:35;;;;;;;10.05;9.75;;;17.90;99.90;;;;;;5043091;28;20212;-87
2023/03/13 13:41:20;;;;;;;10.38;10.07;;;18.20;99.90;;;;;;5042935;28;20282;-86
2023/03/13 13:43:59;;;;;;;10.50;10.20;;;18.60;99.90;;;;;;5042704;28;20231;-87
2023/03/13 13:46:36;;;;;;;10.30;10.00;;;19.10;99.90;;;;;;5043410;28;20243;-88
2023/03/13 13:49:24;;;;;;;10.55;10.25;;;19.20;99.90;;;;;;5043354;28;20219;-88
2023/03/13 13:52:37;;;;;;;10.38;10.07;;;19.20;99.90;;;;;;5045088;28;20734;-88
2023/03/13 13:55:51;;;;;;;10.50;10.20;;;19.50;99.90;;;;;;5058545;28;20231;-88
2023/03/13 13:58:27;;;;;;;10.55;10.25;;;19.90;99.90;;;;;;5041042;28;20227;-89
2023/03/13 14:03:46;;;;;;;10.30;10.00;;;20.10;99.90;;;;;;5043637;28;20231;-88
2023/03/13 14:06:24;;;;;;;10.23;9.93;;;20.10;99.90;;;;;;5044279;28;20255;-86
2023/03/13 14:09:01;;;;;;;10.30;10.00;;;20.30;99.90;;;;;;5043806;28;20242;-86
2023/03/13 14:11:40;;;;;;;10.02;9.73;;;20.20;99.90;;;;;;5051223;28;20191;-89
2023/03/13 14:14:20;;;;;;;10.25;9.95;;;20.00;99.90;;;;;;5047207;28;20247;-86
2023/03/13 14:16:50;;;;;;;10.25;9.95;;;19.80;99.90;;;;;;5056360;28;20239;-86
2023/03/13 14:19:28;;;;;;;10.27;9.98;;;19.30;99.90;;;;;;5045523;28;20231;-86
2023/03/13 14:22:05;;;;;;;10.00;9.70;;;19.10;99.90;;;;;;5044881;28;20248;-88
2023/03/13 14:24:33;;;;;;;9.90;9.60;;;19.10;99.90;;;;;;5045294;28;20304;-87
2023/03/13 14:27:20;;;;;;;10.00;9.70;;;19.10;99.90;;;;;;5045374;28;20238;-87
2023/03/13 14:30:01;;;;;;;10.32;10.02;;;19.00;99.90;;;;;;5046039;28;20234;-89
2023/03/13 14:32:29;;;;;;;10.02;9.73;;;18.70;99.90;;;;;;5052426;28;20212;-90
2023/03/13 14:34:58;;;;;;;10.00;9.70;;;18.50;99.90;;;;;;5060475;28;20220;-91
2023/03/13 14:37:37;;;;;;;10.25;9.95;;;18.40;99.90;;;;;;5059899;28;20215;-88
2023/03/13 14:40:23;;;;;;;10.00;9.70;;;18.30;99.90;;;;;;5058301;28;20243;-86
2023/03/13 14:43:01;;;;;;;9.95;9.65;;;18.30;99.90;;;;;;5052436;28;20238;-87
2023/03/13 14:45:32;;;;;;;9.90;9.60;;;18.30;99.90;;;;;;5041700;28;20310;-86
2023/03/13 14:48:10;;;;;;;9.80;9.50;;;18.30;99.90;;;;;;5042424;28;20235;-86
2023/03/13 14:50:38;;;;;;;10.05;9.75;;;18.40;99.90;;;;;;5044165;28;20283;-86
2023/03/13 14:53:16;;;;;;;10.07;9.77;;;18.60;99.90;;;;;;5042879;28;20246;-87
2023/03/13 14:55:46;;;;;;;10.10;9.80;;;18.80;99.90;;;;;;5042610;28;20289;-87
2023/03/13 14:58:44;;;;;;;10.05;9.75;;;19.10;99.90;;;;;;5042723;28;20231;-87
2023/03/13 15:01:30;;;;;;;10.05;9.75;;;19.60;99.90;;;;;;5045022;28;20299;-85
2023/03/13 15:03:58;;;;;;;10.07;9.77;;;20.10;99.90;;;;;;5046621;28;20223;-85
2023/03/13 15:06:27;;;;;;;9.85;9.55;;;20.40;99.90;;;;;;5044292;28;20310;-84
2023/03/13 15:09:23;;;;;;;9.70;9.40;;;20.30;99.90;;;;;;5042823;28;20245;-84
2023/03/13 15:12:01;;;;;;;9.80;9.50;;;20.40;99.90;;;;;;5035677;28;20333;-83
2023/03/13 15:14:40;;;;;;;10.00;9.70;;;20.50;99.90;;;;;;5043025;28;20227;-85
2023/03/13 15:17:18;;;;;;;9.90;9.60;;;20.80;99.90;;;;;;5043961;28;20277;-81
2023/03/13 15:19:50;;;;;;;10.43;10.13;;;20.60;99.90;;;;;;5033361;28;20239;-81
2023/03/13 15:22:18;;;;;;;10.38;10.07;;;20.60;99.90;;;;;;5022906;28;20291;-81
2023/03/13 15:24:46;;;;;;;10.50;10.20;;;20.60;99.90;;;;;;5024455;28;20723;-84
2023/03/13 15:27:17;;;;;;;10.60;10.30;;;20.60;99.90;;;;;;5024409;28;20232;-84
2023/03/13 15:29:48;;;;;;;11.00;10.70;;;20.50;99.90;;;;;;5028643;28;20228;-84
2023/03/13 15:32:25;;;;;;;10.60;10.30;;;20.40;99.90;;;;;;5044091;28;20299;-83
2023/03/13 15:34:57;;;;;;;10.50;10.20;;;20.30;99.90;;;;;;5043973;28;20310;-83
2023/03/13 15:37:27;;;;;;;10.40;10.10;;;20.10;99.90;;;;;;5042854;28;20235;-84
2023/03/13 15:42:39;;;;;;;10.05;9.75;;;20.10;99.90;;;;;;5032522;28;20234;-84